Time;durP1;ratioP1;P1;durP2;ratioP2;P2;SDS_P1;SDS_P2;PMS_P1;PMS_P2;Temp;Humidity;BMP_temperature;BMP_pressure;BME280_temperature;BME280_humidity;BME280_pressure;Samples;Min_cycle;Max_cycle;Signal;HPM_P1;HPM_P2
2023/08/14 00:00:47;;;;;;;2.10;1.60;;;23.10;62.60;;;;;;6172133;23;20957;-68
2023/08/14 00:03:15;;;;;;;3.73;1.80;;;23.10;62.60;;;;;;6170841;23;20400;-67
2023/08/14 00:05:44;;;;;;;2.43;1.50;;;23.10;62.60;;;;;;6169745;23;20456;-68
2023/08/14 00:08:12;;;;;;;1.67;1.50;;;23.10;62.70;;;;;;6171959;23;20434;-68
2023/08/14 00:10:41;;;;;;;2.50;1.13;;;23.10;63.90;;;;;;6170708;23;20941;-68
2023/08/14 00:13:09;;;;;;;3.30;1.67;;;23.10;62.60;;;;;;6171982;23;20435;-66
2023/08/14 00:15:38;;;;;;;2.93;1.50;;;23.10;62.70;;;;;;6170936;23;20705;-68
2023/08/14 00:18:08;;;;;;;2.03;1.40;;;23.10;62.60;;;;;;6171701;23;20477;-69
2023/08/14 00:20:36;;;;;;;1.50;1.40;;;23.00;62.60;;;;;;6168823;23;20448;-68
2023/08/14 00:23:05;;;;;;;2.53;1.60;;;23.10;62.60;;;;;;6170566;23;20402;-69
2023/08/14 00:25:33;;;;;;;2.70;1.50;;;23.10;62.60;;;;;;6170141;23;20448;-69
2023/08/14 00:28:02;;;;;;;2.20;1.70;;;23.10;62.60;;;;;;6171757;23;20385;-68
2023/08/14 00:30:30;;;;;;;1.37;1.13;;;23.00;62.50;;;;;;6145208;23;20448;-68
2023/08/14 00:32:59;;;;;;;2.20;1.60;;;23.10;62.60;;;;;;6171027;23;20392;-68
2023/08/14 00:35:29;;;;;;;2.37;1.50;;;23.10;62.60;;;;;;6169491;23;20523;-68
2023/08/14 00:37:57;;;;;;;2.30;1.80;;;23.10;62.60;;;;;;6171201;23;20396;-68
2023/08/14 00:40:26;;;;;;;2.53;1.90;;;23.10;62.60;;;;;;6170090;23;20532;-68
2023/08/14 00:42:54;;;;;;;2.50;1.63;;;23.00;62.50;;;;;;6169273;23;20438;-68
2023/08/14 00:45:23;;;;;;;2.93;1.63;;;23.00;62.50;;;;;;6170026;23;20910;-68
2023/08/14 00:48:05;;;;;;;2.40;1.70;;;23.10;62.60;;;;;;6170679;23;20420;-68
2023/08/14 00:50:35;;;;;;;2.97;1.60;;;23.00;62.40;;;;;;6169156;23;20433;-68
2023/08/14 00:53:04;;;;;;;2.07;1.87;;;23.00;62.40;;;;;;6169667;23;20489;-68
2023/08/14 00:55:33;;;;;;;2.10;1.77;;;23.00;62.40;;;;;;6169107;23;20786;-67
2023/08/14 00:58:01;;;;;;;1.87;1.50;;;23.00;63.70;;;;;;6170465;23;20791;-67
2023/08/14 01:00:30;;;;;;;2.17;1.30;;;23.00;62.50;;;;;;6169461;23;20540;-68
2023/08/14 01:02:59;;;;;;;2.50;1.57;;;23.00;62.40;;;;;;6144895;22;20427;-68
2023/08/14 01:05:28;;;;;;;2.60;1.67;;;23.00;62.40;;;;;;6168916;23;21026;-67
2023/08/14 01:07:58;;;;;;;1.90;1.30;;;23.00;62.40;;;;;;6169837;23;20476;-68
2023/08/14 01:10:36;;;;;;;1.90;1.47;;;23.00;62.40;;;;;;6170630;23;20433;-68
2023/08/14 01:13:12;;;;;;;1.80;1.43;;;23.00;62.50;;;;;;6172874;23;20767;-68
2023/08/14 01:15:44;;;;;;;2.63;1.90;;;23.00;62.40;;;;;;6174641;23;20431;-68
2023/08/14 01:18:16;;;;;;;2.40;1.70;;;23.00;62.50;;;;;;6175299;23;20514;-68
2023/08/14 01:21:01;;;;;;;2.27;1.30;;;23.00;62.40;;;;;;6170034;23;20436;-68
2023/08/14 01:23:34;;;;;;;2.10;1.73;;;23.00;62.40;;;;;;6171554;23;20373;-68
2023/08/14 01:26:04;;;;;;;1.87;1.07;;;23.00;62.40;;;;;;6173913;23;20428;-68
2023/08/14 01:28:33;;;;;;;2.83;1.57;;;23.00;62.40;;;;;;6172294;23;20426;-68
2023/08/14 01:31:04;;;;;;;2.17;1.30;;;23.00;62.40;;;;;;6172220;23;20471;-68
2023/08/14 01:33:32;;;;;;;3.03;1.43;;;23.00;62.50;;;;;;6171707;23;20431;-68
2023/08/14 01:36:09;;;;;;;2.17;1.30;;;23.00;62.30;;;;;;6171363;23;20437;-68
2023/08/14 01:38:48;;;;;;;2.33;1.77;;;23.00;62.40;;;;;;6170439;23;20432;-68
2023/08/14 01:41:23;;;;;;;2.07;1.20;;;22.90;62.30;;;;;;6171910;23;20437;-68
2023/08/14 01:43:57;;;;;;;2.30;1.40;;;22.90;62.30;;;;;;6170928;23;20393;-68
2023/08/14 01:46:26;;;;;;;2.47;1.50;;;23.00;62.50;;;;;;6171889;23;20412;-68
2023/08/14 01:48:58;;;;;;;1.80;1.67;;;22.90;62.30;;;;;;6172647;23;20401;-68
2023/08/14 01:51:27;;;;;;;4.50;1.70;;;23.00;62.40;;;;;;6171571;23;20921;-68
2023/08/14 01:53:56;;;;;;;1.90;1.20;;;22.90;62.30;;;;;;6169640;23;20429;-68
2023/08/14 01:56:25;;;;;;;1.63;1.50;;;22.90;62.30;;;;;;6171107;23;20756;-68
2023/08/14 01:58:54;;;;;;;2.93;1.50;;;22.90;62.20;;;;;;6171121;23;20634;-68
2023/08/14 02:01:22;;;;;;;2.77;1.83;;;22.90;62.20;;;;;;6173115;23;20417;-68
2023/08/14 02:03:51;;;;;;;2.97;1.77;;;22.90;62.10;;;;;;6174199;23;20399;-68
2023/08/14 02:06:19;;;;;;;2.40;1.50;;;22.90;62.20;;;;;;6174860;23;20433;-68
2023/08/14 02:08:48;;;;;;;3.00;1.53;;;22.90;62.20;;;;;;6174972;23;20430;-68
2023/08/14 02:11:18;;;;;;;2.10;1.53;;;22.90;62.20;;;;;;6175203;23;20722;-68
2023/08/14 02:13:49;;;;;;;4.50;2.00;;;22.90;62.30;;;;;;6173316;23;20445;-68
2023/08/14 02:16:17;;;;;;;3.37;1.53;;;22.90;62.10;;;;;;6175617;23;20423;-68
2023/08/14 02:18:46;;;;;;;1.60;1.50;;;22.90;62.20;;;;;;6176699;23;20435;-68
2023/08/14 02:21:17;;;;;;;2.50;1.57;;;22.90;62.20;;;;;;6174775;23;20432;-68
2023/08/14 02:23:46;;;;;;;1.97;1.50;;;22.90;62.20;;;;;;6176660;23;20397;-68
2023/08/14 02:26:14;;;;;;;3.07;1.70;;;22.90;62.10;;;;;;6175752;23;20921;-68
2023/08/14 02:28:43;;;;;;;1.70;1.30;;;22.90;62.10;;;;;;6174033;23;20956;-68
2023/08/14 02:31:13;;;;;;;1.73;1.33;;;22.90;62.10;;;;;;6176224;23;20387;-68
2023/08/14 02:33:42;;;;;;;2.07;1.30;;;22.90;62.10;;;;;;6175253;23;20396;-68
2023/08/14 02:36:10;;;;;;;1.80;1.27;;;22.90;62.10;;;;;;6175791;23;20693;-68
2023/08/14 02:38:40;;;;;;;2.53;1.53;;;22.90;62.30;;;;;;6174909;23;20405;-68
2023/08/14 02:41:08;;;;;;;1.80;1.40;;;22.80;62.10;;;;;;6175452;23;20420;-68
2023/08/14 02:43:37;;;;;;;1.67;1.10;;;22.90;62.20;;;;;;6174077;23;20908;-68
2023/08/14 02:46:05;;;;;;;1.47;1.33;;;22.80;62.00;;;;;;6174837;23;20460;-68
2023/08/14 02:48:35;;;;;;;1.73;1.40;;;22.90;62.30;;;;;;6173491;23;20953;-68
2023/08/14 02:51:04;;;;;;;2.50;1.53;;;22.80;62.00;;;;;;6174781;23;20412;-68
2023/08/14 02:53:32;;;;;;;2.03;1.60;;;22.80;62.10;;;;;;6174403;23;20385;-68
2023/08/14 02:56:01;;;;;;;1.40;1.10;;;22.80;62.10;;;;;;6175270;23;20635;-68
2023/08/14 02:58:30;;;;;;;1.67;1.00;;;22.80;62.10;;;;;;6173361;23;20436;-68
2023/08/14 03:00:58;;;;;;;2.00;1.40;;;22.80;62.10;;;;;;6175495;23;20751;-68
2023/08/14 03:03:27;;;;;;;2.40;1.50;;;22.80;62.10;;;;;;6147109;22;20714;-68
2023/08/14 03:06:00;;;;;;;1.50;1.20;;;22.80;62.10;;;;;;6172219;23;20806;-68
2023/08/14 03:08:28;;;;;;;1.93;1.53;;;22.80;62.10;;;;;;6171767;23;20373;-68
2023/08/14 03:10:56;;;;;;;2.10;1.27;;;22.80;62.10;;;;;;6172810;23;20865;-68
2023/08/14 03:13:25;;;;;;;1.67;1.33;;;22.80;62.10;;;;;;6171801;23;20392;-68
2023/08/14 03:15:53;;;;;;;2.27;1.93;;;22.80;62.10;;;;;;6174922;23;20416;-68
2023/08/14 03:18:22;;;;;;;2.20;1.30;;;22.80;62.10;;;;;;6172178;23;20401;-68
2023/08/14 03:20:50;;;;;;;1.87;1.53;;;22.80;62.20;;;;;;6168990;23;20844;-68
2023/08/14 03:23:20;;;;;;;2.13;1.30;;;22.80;62.20;;;;;;6169634;23;20828;-68
2023/08/14 03:25:48;;;;;;;2.40;1.83;;;22.80;62.10;;;;;;6169868;23;20942;-68
2023/08/14 03:28:17;;;;;;;2.27;1.60;;;22.80;62.20;;;;;;6144873;23;20396;-68
2023/08/14 03:30:46;;;;;;;1.47;1.23;;;22.70;62.30;;;;;;6169053;23;20449;-68
2023/08/14 03:33:15;;;;;;;1.73;1.30;;;22.80;62.20;;;;;;6169451;23;20393;-68
2023/08/14 03:35:44;;;;;;;1.83;1.53;;;22.70;62.20;;;;;;6167805;23;20810;-68
2023/08/14 03:38:15;;;;;;;2.40;1.50;;;22.70;62.10;;;;;;6169397;23;20867;-68
2023/08/14 03:40:45;;;;;;;1.70;1.30;;;22.70;62.10;;;;;;6168508;23;21020;-68
2023/08/14 03:43:14;;;;;;;1.20;1.10;;;22.70;62.10;;;;;;6168067;23;20397;-68
2023/08/14 03:45:42;;;;;;;2.07;1.43;;;22.70;62.10;;;;;;6168524;23;20433;-68
2023/08/14 03:48:11;;;;;;;2.70;1.40;;;22.70;62.00;;;;;;6169490;23;20408;-68
2023/08/14 03:50:45;;;;;;;2.40;1.03;;;22.70;62.10;;;;;;6167673;23;20439;-68
2023/08/14 03:53:13;;;;;;;1.80;1.40;;;22.70;62.10;;;;;;6168695;23;20385;-68
2023/08/14 03:55:41;;;;;;;2.00;1.70;;;22.70;62.00;;;;;;6168266;23;20448;-68
2023/08/14 03:58:11;;;;;;;1.47;1.00;;;22.70;62.00;;;;;;6168927;23;20400;-68
2023/08/14 04:00:39;;;;;;;1.57;1.27;;;22.70;62.10;;;;;;6168311;23;20460;-68
2023/08/14 04:03:08;;;;;;;2.23;1.70;;;22.70;62.10;;;;;;6168609;23;20381;-68
2023/08/14 04:05:40;;;;;;;1.53;1.10;;;22.70;62.10;;;;;;6167894;23;20433;-68
2023/08/14 04:08:09;;;;;;;1.97;1.27;;;22.70;62.10;;;;;;6170699;23;20377;-68
2023/08/14 04:10:38;;;;;;;1.53;1.30;;;22.70;62.00;;;;;;6169145;23;20443;-68
2023/08/14 04:13:07;;;;;;;3.17;1.70;;;22.70;62.10;;;;;;6168968;23;20392;-68
2023/08/14 04:15:37;;;;;;;4.17;1.70;;;22.60;61.90;;;;;;6168619;23;20447;-68
2023/08/14 04:18:06;;;;;;;2.13;1.47;;;22.70;63.30;;;;;;6169655;23;20472;-68
2023/08/14 04:20:35;;;;;;;2.60;1.60;;;22.70;62.10;;;;;;6107575;23;1115031;-68
2023/08/14 04:23:05;;;;;;;2.80;1.47;;;22.70;62.10;;;;;;6164459;23;20706;-68
2023/08/14 04:25:34;;;;;;;1.70;1.60;;;22.60;61.80;;;;;;6171036;23;20447;-68
2023/08/14 04:28:02;;;;;;;2.17;1.30;;;22.60;61.90;;;;;;6171171;23;20747;-68
2023/08/14 04:30:30;;;;;;;2.13;1.17;;;22.60;61.80;;;;;;6170351;23;20447;-68
2023/08/14 04:33:00;;;;;;;1.37;1.10;;;22.60;61.90;;;;;;6170356;23;20396;-68
2023/08/14 04:35:29;;;;;;;2.70;1.30;;;22.60;61.90;;;;;;6170009;23;20512;-68
2023/08/14 04:37:59;;;;;;;2.50;1.30;;;22.60;62.00;;;;;;6171787;23;20397;-68
2023/08/14 04:40:27;;;;;;;2.20;1.50;;;22.60;62.00;;;;;;6170585;23;20516;-68
2023/08/14 04:42:56;;;;;;;2.10;1.37;;;22.60;62.00;;;;;;6169541;23;20949;-68
2023/08/14 04:45:24;;;;;;;1.23;1.13;;;22.50;62.00;;;;;;6170089;23;20476;-69
2023/08/14 04:47:52;;;;;;;2.00;1.40;;;22.60;62.00;;;;;;6170588;23;20405;-68
2023/08/14 04:50:27;;;;;;;1.37;1.13;;;22.60;62.10;;;;;;6169566;23;20435;-68
2023/08/14 04:52:56;;;;;;;2.93;1.90;;;22.60;62.10;;;;;;6170035;23;20494;-68
2023/08/14 04:55:25;;;;;;;1.70;1.40;;;22.60;62.00;;;;;;6170463;23;20440;-68
2023/08/14 04:57:54;;;;;;;2.40;1.37;;;22.60;62.00;;;;;;6170164;23;20400;-68
2023/08/14 05:00:24;;;;;;;3.63;1.30;;;22.50;61.80;;;;;;6169951;23;20951;-68
2023/08/14 05:02:52;;;;;;;1.30;1.20;;;22.50;61.90;;;;;;6169880;23;20439;-69
2023/08/14 05:05:22;;;;;;;3.87;1.30;;;22.50;61.90;;;;;;6169399;23;20436;-68
2023/08/14 05:07:51;;;;;;;2.17;1.10;;;22.50;61.90;;;;;;6171012;23;20400;-68
2023/08/14 05:10:20;;;;;;;2.30;1.20;;;22.50;61.90;;;;;;6170387;23;20444;-69
2023/08/14 05:12:48;;;;;;;2.00;1.70;;;22.50;61.90;;;;;;6171353;23;20388;-68
2023/08/14 05:15:16;;;;;;;1.43;0.97;;;22.50;61.90;;;;;;6171177;23;20428;-68
2023/08/14 05:17:45;;;;;;;2.13;1.13;;;22.50;61.90;;;;;;6170657;23;20396;-68
2023/08/14 05:20:14;;;;;;;1.33;1.20;;;22.50;62.00;;;;;;6143625;23;20433;-68
2023/08/14 05:22:43;;;;;;;2.07;1.47;;;22.50;62.00;;;;;;6170415;23;20425;-68
2023/08/14 05:25:13;;;;;;;2.80;1.57;;;22.50;63.20;;;;;;6170426;23;20456;-68
2023/08/14 05:27:42;;;;;;;1.93;1.30;;;22.50;62.00;;;;;;6170474;23;20466;-68
2023/08/14 05:30:11;;;;;;;3.40;1.20;;;22.50;62.10;;;;;;6170742;22;21033;-68
2023/08/14 05:32:40;;;;;;;2.00;1.30;;;22.50;62.00;;;;;;6170019;23;20922;-68
2023/08/14 05:35:09;;;;;;;2.07;1.33;;;22.50;62.10;;;;;;6169177;23;20436;-68
2023/08/14 05:37:37;;;;;;;1.63;1.17;;;22.50;62.10;;;;;;6171141;23;20478;-68
2023/08/14 05:40:07;;;;;;;1.80;1.20;;;22.50;62.20;;;;;;6171795;22;20433;-68
2023/08/14 05:42:37;;;;;;;2.10;1.50;;;22.50;62.20;;;;;;6169216;23;20906;-68
2023/08/14 05:45:07;;;;;;;1.17;1.00;;;22.50;62.30;;;;;;6169329;23;20482;-68
2023/08/14 05:47:35;;;;;;;1.73;1.40;;;22.40;62.20;;;;;;6170896;23;20743;-68
2023/08/14 05:50:04;;;;;;;1.50;1.30;;;22.40;62.30;;;;;;6168793;23;20852;-68
2023/08/14 05:52:36;;;;;;;1.47;1.33;;;22.40;62.40;;;;;;6171167;23;20393;-68
2023/08/14 05:55:05;;;;;;;2.00;1.13;;;22.40;62.20;;;;;;6171222;23;20926;-68
2023/08/14 05:57:33;;;;;;;2.27;1.60;;;22.40;62.30;;;;;;6171046;23;20953;-68
2023/08/14 06:00:03;;;;;;;2.10;1.23;;;22.40;62.40;;;;;;6170316;23;20440;-68
2023/08/14 06:02:39;;;;;;;1.47;1.20;;;22.40;62.40;;;;;;6173535;23;20504;-68
2023/08/14 06:05:09;;;;;;;1.20;1.00;;;22.40;62.40;;;;;;6170238;23;20523;-68
2023/08/14 06:07:37;;;;;;;1.50;1.23;;;22.40;62.50;;;;;;6172280;23;20392;-68
2023/08/14 06:10:06;;;;;;;2.90;1.37;;;22.40;62.50;;;;;;6170585;23;20495;-68
2023/08/14 06:12:36;;;;;;;2.00;1.30;;;22.40;62.50;;;;;;6172491;23;20465;-68
2023/08/14 06:15:07;;;;;;;2.33;1.63;;;22.40;62.60;;;;;;6170362;23;20441;-68
2023/08/14 06:17:35;;;;;;;2.30;1.40;;;22.40;62.60;;;;;;6172334;23;20374;-68
2023/08/14 06:20:05;;;;;;;2.00;1.43;;;22.40;62.60;;;;;;6169792;23;20447;-68
2023/08/14 06:22:38;;;;;;;1.70;1.07;;;22.40;62.70;;;;;;6171104;23;20470;-68
2023/08/14 06:25:07;;;;;;;1.60;1.20;;;22.40;62.70;;;;;;6170831;23;20755;-68
2023/08/14 06:27:36;;;;;;;1.90;1.40;;;22.40;62.70;;;;;;6171194;23;20735;-68
2023/08/14 06:30:08;;;;;;;1.73;1.33;;;22.40;62.70;;;;;;6170577;23;20441;-68
2023/08/14 06:32:37;;;;;;;2.20;1.50;;;22.40;62.80;;;;;;6171524;23;20392;-68
2023/08/14 06:35:06;;;;;;;3.43;1.63;;;22.40;62.80;;;;;;6144992;23;20460;-68
2023/08/14 06:37:35;;;;;;;3.00;1.57;;;22.40;63.50;;;;;;6171550;23;20400;-68
2023/08/14 06:40:04;;;;;;;3.30;1.70;;;22.30;63.10;;;;;;6170187;23;20432;-68
2023/08/14 06:42:32;;;;;;;2.00;1.60;;;22.30;63.20;;;;;;6171236;23;20433;-68
2023/08/14 06:45:03;;;;;;;4.70;2.40;;;22.30;63.10;;;;;;6170202;23;20432;-69
2023/08/14 06:47:33;;;;;;;5.60;2.70;;;22.30;64.20;;;;;;6171627;23;20389;-68
2023/08/14 06:50:01;;;;;;;5.20;2.37;;;22.20;65.60;;;;;;6169614;23;20424;-68
2023/08/14 06:52:30;;;;;;;6.60;2.70;;;22.20;66.00;;;;;;6172810;23;20389;-68
2023/08/14 06:54:58;;;;;;;7.88;3.00;;;22.20;66.00;;;;;;6170107;23;20923;-68
2023/08/14 06:57:26;;;;;;;2.90;2.10;;;22.10;65.80;;;;;;6172216;23;20189;-68
2023/08/14 06:59:55;;;;;;;5.20;2.40;;;22.10;65.80;;;;;;6170341;23;20459;-68
2023/08/14 07:02:23;;;;;;;3.87;2.20;;;22.10;65.40;;;;;;6171208;23;20421;-68
2023/08/14 07:04:53;;;;;;;2.80;2.20;;;22.10;64.90;;;;;;6169944;23;20783;-68
2023/08/14 07:07:21;;;;;;;2.73;1.43;;;22.20;64.80;;;;;;6171544;23;20829;-68
2023/08/14 07:09:49;;;;;;;2.37;1.70;;;22.20;64.60;;;;;;6171156;23;20420;-68
2023/08/14 07:12:18;;;;;;;4.50;2.17;;;22.20;64.40;;;;;;6172578;23;20412;-68
2023/08/14 07:14:47;;;;;;;1.97;1.57;;;22.20;64.40;;;;;;6171830;22;20914;-68
2023/08/14 07:17:17;;;;;;;3.60;1.50;;;22.20;64.40;;;;;;6171263;23;20409;-68
2023/08/14 07:19:45;;;;;;;3.57;2.10;;;22.20;64.30;;;;;;6170113;23;20433;-70
2023/08/14 07:22:15;;;;;;;2.70;1.77;;;22.20;65.20;;;;;;6171005;23;20426;-68
2023/08/14 07:24:44;;;;;;;2.13;1.77;;;22.20;65.00;;;;;;6171062;23;20463;-68
2023/08/14 07:27:12;;;;;;;3.37;1.90;;;22.20;64.70;;;;;;6171330;23;20424;-68
2023/08/14 07:29:41;;;;;;;5.63;1.93;;;22.20;64.70;;;;;;6172290;22;21015;-68
2023/08/14 07:32:12;;;;;;;2.53;1.43;;;22.30;64.60;;;;;;6170834;23;20468;-68
2023/08/14 07:34:40;;;;;;;3.40;1.70;;;22.30;64.50;;;;;;6170347;23;20425;-68
2023/08/14 07:37:09;;;;;;;2.80;1.67;;;22.20;64.30;;;;;;6171842;23;20425;-68
2023/08/14 07:39:39;;;;;;;1.90;1.70;;;22.30;64.40;;;;;;6170788;23;20436;-68
2023/08/14 07:42:07;;;;;;;4.10;1.40;;;22.20;65.40;;;;;;6171076;23;20406;-68
2023/08/14 07:44:35;;;;;;;4.10;1.50;;;22.20;64.20;;;;;;6169801;23;20433;-68
2023/08/14 07:47:04;;;;;;;4.07;2.10;;;22.20;64.20;;;;;;6146182;23;20445;-68
2023/08/14 07:49:33;;;;;;;3.40;2.00;;;22.20;64.30;;;;;;6169993;23;20485;-68
2023/08/14 07:52:01;;;;;;;2.23;1.70;;;22.20;64.30;;;;;;6172114;23;20416;-68
2023/08/14 07:54:30;;;;;;;5.27;1.80;;;22.20;64.30;;;;;;6169968;23;20438;-68
2023/08/14 07:56:59;;;;;;;4.00;2.00;;;22.20;64.40;;;;;;6170702;23;20428;-68
2023/08/14 07:59:28;;;;;;;2.40;1.80;;;22.20;64.40;;;;;;6172713;23;20804;-68
2023/08/14 08:01:56;;;;;;;3.77;1.97;;;22.20;64.30;;;;;;6171200;23;20927;-68
2023/08/14 08:04:24;;;;;;;2.53;1.77;;;22.20;64.40;;;;;;6168834;23;20524;-68
2023/08/14 08:06:54;;;;;;;2.30;1.40;;;22.20;65.60;;;;;;6171926;23;20937;-68
2023/08/14 08:09:23;;;;;;;2.83;1.60;;;22.20;64.20;;;;;;6171021;23;20389;-67
2023/08/14 08:11:52;;;;;;;3.40;1.90;;;22.30;64.20;;;;;;6170220;23;20408;-68
2023/08/14 08:14:21;;;;;;;2.67;1.43;;;22.30;64.30;;;;;;6169910;23;20482;-69
2023/08/14 08:16:50;;;;;;;2.60;1.90;;;22.30;65.40;;;;;;6171408;23;20481;-68
2023/08/14 08:19:18;;;;;;;4.20;1.50;;;22.30;64.20;;;;;;6169099;23;20393;-69
2023/08/14 08:21:46;;;;;;;2.20;1.40;;;22.30;64.10;;;;;;6170877;23;20377;-68
2023/08/14 08:24:15;;;;;;;2.00;1.30;;;22.30;64.00;;;;;;6169789;23;20444;-68
2023/08/14 08:26:43;;;;;;;2.70;1.63;;;22.30;64.10;;;;;;6171005;23;20417;-68
2023/08/14 08:29:12;;;;;;;2.33;1.40;;;22.30;64.10;;;;;;6170486;23;20396;-68
2023/08/14 08:31:41;;;;;;;2.33;1.40;;;22.30;65.30;;;;;;6171083;23;20867;-68
2023/08/14 08:34:10;;;;;;;2.47;1.70;;;22.30;64.00;;;;;;6168958;23;20437;-68
2023/08/14 08:36:38;;;;;;;2.73;1.53;;;22.30;63.90;;;;;;6170604;23;20408;-69
2023/08/14 08:39:06;;;;;;;6.47;2.47;;;22.30;63.60;;;;;;6171539;23;20397;-69
2023/08/14 08:41:39;;;;;;;4.30;1.70;;;22.60;62.60;;;;;;6171539;23;20393;-69
2023/08/14 08:44:10;;;;;;;3.70;2.07;;;22.70;61.80;;;;;;6169667;23;20795;-71
2023/08/14 08:46:47;;;;;;;3.80;1.80;;;22.70;62.10;;;;;;6169590;23;20395;-68
2023/08/14 08:49:16;;;;;;;4.33;1.50;;;22.60;62.00;;;;;;6169212;23;20444;-67
2023/08/14 08:51:45;;;;;;;2.20;1.57;;;22.60;62.30;;;;;;6170753;23;20550;-68
2023/08/14 08:54:17;;;;;;;4.70;1.67;;;22.50;62.40;;;;;;6170959;23;20389;-68
2023/08/14 08:56:46;;;;;;;4.50;1.60;;;22.50;62.50;;;;;;6171257;23;20431;-67
2023/08/14 08:59:15;;;;;;;2.50;1.70;;;22.40;62.60;;;;;;6169377;23;20498;-68
2023/08/14 09:01:46;;;;;;;1.90;1.70;;;22.40;62.70;;;;;;6170394;23;20943;-68
2023/08/14 09:04:15;;;;;;;3.10;1.40;;;22.40;62.80;;;;;;6169182;23;20821;-68
2023/08/14 09:06:44;;;;;;;1.60;1.40;;;22.40;62.90;;;;;;6171391;23;20983;-67
2023/08/14 09:09:13;;;;;;;4.53;1.90;;;22.40;63.00;;;;;;6170467;23;20797;-68
2023/08/14 09:11:42;;;;;;;2.63;1.43;;;22.40;63.00;;;;;;6171825;23;20405;-68
2023/08/14 09:14:11;;;;;;;2.27;1.30;;;22.30;64.30;;;;;;6170137;23;20439;-68
2023/08/14 09:16:41;;;;;;;4.00;1.60;;;22.30;63.00;;;;;;6171423;23;20499;-68
2023/08/14 09:19:13;;;;;;;2.10;1.50;;;22.40;63.10;;;;;;6169659;23;20936;-68
2023/08/14 09:21:44;;;;;;;2.93;1.50;;;22.30;63.10;;;;;;6171338;23;20400;-68
2023/08/14 09:24:14;;;;;;;1.90;1.20;;;22.30;63.10;;;;;;6170715;23;20773;-68
2023/08/14 09:26:43;;;;;;;2.83;1.57;;;22.30;63.10;;;;;;6170778;23;20927;-68
2023/08/14 09:29:13;;;;;;;3.03;1.70;;;22.30;63.10;;;;;;6170148;23;20388;-68
2023/08/14 09:31:44;;;;;;;2.20;1.70;;;22.30;63.20;;;;;;6172284;23;20399;-68
2023/08/14 09:34:18;;;;;;;2.83;1.50;;;22.30;63.20;;;;;;6171172;23;20608;-68
2023/08/14 09:36:47;;;;;;;1.80;1.27;;;22.30;63.30;;;;;;6172443;23;20494;-68
2023/08/14 09:39:18;;;;;;;2.57;1.37;;;22.30;63.30;;;;;;6172497;23;20413;-68
2023/08/14 09:41:50;;;;;;;2.63;1.63;;;22.30;63.10;;;;;;6171774;23;20519;-67
2023/08/14 09:44:22;;;;;;;1.97;1.20;;;22.30;63.20;;;;;;6170220;23;20433;-68
2023/08/14 09:46:51;;;;;;;1.50;0.93;;;22.30;63.30;;;;;;6172449;23;20750;-68
2023/08/14 09:49:22;;;;;;;1.60;1.10;;;22.30;63.20;;;;;;6173411;23;20398;-68
2023/08/14 09:51:57;;;;;;;3.67;1.77;;;22.30;63.30;;;;;;6172280;23;20399;-68
2023/08/14 09:54:32;;;;;;;2.87;1.57;;;22.30;63.50;;;;;;6171082;23;20436;-68
2023/08/14 09:57:04;;;;;;;3.20;1.60;;;22.30;63.40;;;;;;6171712;23;20411;-68
2023/08/14 09:59:37;;;;;;;2.27;1.20;;;22.40;63.00;;;;;;6170864;23;20439;-68
2023/08/14 10:02:10;;;;;;;3.07;1.70;;;22.40;63.00;;;;;;6171530;23;20913;-68
2023/08/14 10:04:42;;;;;;;2.60;1.77;;;22.40;63.10;;;;;;6170107;23;20535;-68
2023/08/14 10:07:10;;;;;;;3.47;1.73;;;22.40;63.10;;;;;;6167770;23;20420;-68
2023/08/14 10:09:44;;;;;;;2.00;1.50;;;22.30;63.00;;;;;;6170782;23;20493;-68
2023/08/14 10:12:13;;;;;;;2.23;1.37;;;22.30;63.10;;;;;;6170874;23;20374;-68
2023/08/14 10:14:45;;;;;;;1.97;1.40;;;22.30;63.30;;;;;;6171065;23;20424;-68
2023/08/14 10:17:19;;;;;;;2.33;1.70;;;22.30;63.50;;;;;;6171218;23;20489;-68
2023/08/14 10:19:52;;;;;;;2.03;1.50;;;22.30;63.40;;;;;;6170267;23;20505;-68
2023/08/14 10:22:22;;;;;;;2.00;1.40;;;22.30;63.40;;;;;;6171240;23;20446;-66
2023/08/14 10:24:54;;;;;;;3.23;1.70;;;22.30;63.50;;;;;;6169435;23;20447;-68
2023/08/14 10:27:23;;;;;;;2.20;1.23;;;22.30;63.50;;;;;;6171837;23;20420;-68
2023/08/14 10:29:52;;;;;;;3.30;1.80;;;22.30;63.60;;;;;;6172201;22;20432;-66
2023/08/14 10:32:20;;;;;;;2.10;1.27;;;22.30;63.60;;;;;;6171881;23;20431;-68
2023/08/14 10:34:51;;;;;;;2.60;1.60;;;22.30;63.60;;;;;;6170575;23;20429;-68
2023/08/14 10:37:27;;;;;;;2.50;1.60;;;22.30;63.60;;;;;;6171850;23;20417;-68
2023/08/14 10:40:13;;;;;;;1.93;1.40;;;22.30;63.60;;;;;;6171316;23;20439;-68
2023/08/14 10:42:45;;;;;;;3.17;1.50;;;22.30;63.60;;;;;;6172171;23;20380;-68
2023/08/14 10:45:17;;;;;;;2.20;1.53;;;22.30;63.70;;;;;;6170814;23;20457;-66
2023/08/14 10:47:46;;;;;;;1.93;1.40;;;22.30;63.70;;;;;;6143729;22;20469;-68
2023/08/14 10:50:19;;;;;;;2.27;1.30;;;22.30;63.70;;;;;;6170010;23;20448;-69
2023/08/14 10:52:49;;;;;;;2.50;1.57;;;22.30;63.80;;;;;;6171768;23;20385;-69
2023/08/14 10:55:18;;;;;;;2.40;1.57;;;22.30;63.80;;;;;;6170765;23;20443;-69
2023/08/14 10:57:47;;;;;;;1.97;1.27;;;22.30;63.80;;;;;;6171882;23;20438;-66
2023/08/14 11:00:21;;;;;;;2.50;1.70;;;22.30;63.90;;;;;;6171166;23;20750;-68
2023/08/14 11:02:51;;;;;;;3.53;1.37;;;22.30;63.80;;;;;;6171727;23;20380;-68
2023/08/14 11:05:22;;;;;;;2.43;1.20;;;22.30;63.90;;;;;;6170497;23;20476;-68
2023/08/14 11:08:00;;;;;;;2.20;1.23;;;22.30;63.90;;;;;;6173438;23;20422;-68
2023/08/14 11:10:29;;;;;;;3.80;1.40;;;22.30;63.90;;;;;;6171075;23;20486;-68
2023/08/14 11:12:57;;;;;;;3.80;1.80;;;22.30;63.90;;;;;;6171724;23;20408;-68
2023/08/14 11:15:26;;;;;;;1.90;1.20;;;22.30;64.00;;;;;;6170678;23;20493;-68
2023/08/14 11:17:55;;;;;;;1.93;1.30;;;22.30;64.10;;;;;;6146764;22;20903;-68
2023/08/14 11:20:26;;;;;;;2.20;1.10;;;22.30;64.20;;;;;;6170047;23;20437;-68
2023/08/14 11:22:55;;;;;;;2.90;1.50;;;22.30;64.10;;;;;;6171489;23;20373;-68
2023/08/14 11:25:23;;;;;;;2.87;1.27;;;22.30;64.20;;;;;;6169968;23;20445;-68
2023/08/14 11:27:53;;;;;;;2.27;1.17;;;22.30;64.10;;;;;;6171065;23;20405;-69
2023/08/14 11:30:23;;;;;;;2.00;1.03;;;22.30;64.10;;;;;;6170300;23;20751;-68
2023/08/14 11:32:54;;;;;;;2.73;1.40;;;22.30;64.10;;;;;;6172338;23;20922;-68
2023/08/14 11:35:28;;;;;;;1.40;1.17;;;22.30;64.10;;;;;;6170330;23;20449;-68
2023/08/14 11:37:57;;;;;;;1.60;1.47;;;22.30;64.20;;;;;;6171907;23;20384;-68
2023/08/14 11:40:26;;;;;;;1.37;1.17;;;22.30;64.20;;;;;;6170572;23;20436;-68
2023/08/14 11:42:57;;;;;;;1.77;1.27;;;22.30;64.20;;;;;;6171222;23;20392;-68
2023/08/14 11:45:27;;;;;;;3.60;1.40;;;22.30;64.20;;;;;;6170188;23;22683;-68
2023/08/14 11:47:56;;;;;;;1.83;1.63;;;22.30;64.20;;;;;;6171407;23;20405;-68
2023/08/14 11:50:26;;;;;;;1.73;0.83;;;22.30;65.60;;;;;;6169346;23;20784;-68
2023/08/14 11:52:55;;;;;;;2.30;1.50;;;22.30;64.30;;;;;;6171038;23;20393;-68
2023/08/14 11:55:23;;;;;;;2.23;1.40;;;22.30;64.40;;;;;;6170285;23;20750;-67
2023/08/14 11:57:52;;;;;;;1.87;1.30;;;22.30;64.70;;;;;;6170135;23;20392;-68
2023/08/14 12:00:21;;;;;;;2.57;1.47;;;22.30;64.70;;;;;;6170694;23;20447;-68
2023/08/14 12:03:00;;;;;;;1.67;1.20;;;22.30;64.70;;;;;;6170859;23;20373;-68
2023/08/14 12:05:30;;;;;;;1.93;1.40;;;22.30;64.80;;;;;;6168820;23;20445;-68
2023/08/14 12:08:00;;;;;;;1.90;1.40;;;22.40;64.90;;;;;;6171492;23;20385;-68
2023/08/14 12:10:32;;;;;;;1.90;1.40;;;22.40;64.90;;;;;;6170675;23;20494;-68
2023/08/14 12:13:01;;;;;;;2.03;1.40;;;22.40;65.00;;;;;;6170658;23;20389;-68
2023/08/14 12:15:31;;;;;;;2.70;1.20;;;22.40;65.20;;;;;;6170145;23;20524;-68
2023/08/14 12:18:00;;;;;;;3.33;1.47;;;22.40;65.20;;;;;;6171331;23;20867;-68
2023/08/14 12:20:34;;;;;;;3.90;1.53;;;22.40;65.20;;;;;;6169534;23;20437;-68
2023/08/14 12:23:12;;;;;;;1.90;1.40;;;22.40;65.40;;;;;;6170376;23;20380;-68
2023/08/14 12:25:40;;;;;;;2.43;1.50;;;22.40;65.40;;;;;;6170348;23;20448;-68
2023/08/14 12:28:09;;;;;;;2.53;1.43;;;22.40;65.70;;;;;;6170949;23;20400;-68
2023/08/14 12:30:37;;;;;;;3.77;1.77;;;22.40;65.60;;;;;;6170762;23;20451;-68
2023/08/14 12:33:06;;;;;;;2.20;1.23;;;22.40;65.70;;;;;;6170636;23;20369;-68
2023/08/14 12:35:36;;;;;;;2.00;1.10;;;22.40;65.60;;;;;;6168765;23;20519;-68
2023/08/14 12:38:05;;;;;;;2.03;1.80;;;22.40;65.60;;;;;;6171182;23;20403;-68
2023/08/14 12:40:35;;;;;;;2.13;1.60;;;22.40;65.60;;;;;;6170762;23;20519;-68
2023/08/14 12:43:04;;;;;;;2.70;1.40;;;22.40;65.60;;;;;;6171254;23;20679;-68
2023/08/14 12:45:32;;;;;;;2.80;2.27;;;22.40;65.60;;;;;;6171164;22;20454;-68
2023/08/14 12:48:00;;;;;;;2.93;1.33;;;22.40;65.70;;;;;;6170671;23;20874;-68
2023/08/14 12:50:29;;;;;;;2.50;1.17;;;22.40;65.90;;;;;;6169898;23;21081;-68
2023/08/14 12:52:59;;;;;;;2.90;1.50;;;22.50;66.10;;;;;;6169988;23;20445;-68
2023/08/14 12:55:27;;;;;;;2.10;1.90;;;22.50;66.10;;;;;;6170013;23;20946;-68
2023/08/14 12:57:55;;;;;;;1.50;1.27;;;22.50;66.10;;;;;;6173163;23;20401;-68
2023/08/14 13:00:24;;;;;;;2.63;1.40;;;22.50;66.30;;;;;;6169611;23;20441;-68